Mariq — SVA2152 — position and weather

sailwx.info

Track history (hours):
 
Tides and Currents Weather Stations Pressure Air Temp Water Temp Dewpoint Dewpoint Depression Visibility Wind Speed Wind Dir Waves Ship Positions

Mariq

Last reported at 2016-Jul-23 08:34 UTC. Time now 2016-Jul-27 13:32 UTC.
Position N 37°16' E 025°49'.

Length 57 m.

Type: Tanker. MMSI: 239758424.

Date/timePositionNaut miles runAvg speedWind from/ knotsBaromVisibWave heightAir tempDewpointWater temp
2016-Jul-23 08:34N 37°16' E 025°49'13 8.9
2016-Jul-23 07:06N 37°17' E 025°33'5 8.9
2016-Jul-23 06:34N 37°18' E 025°27'18 8.9
2016-Jul-23 04:33N 37°20' E 025°05'9 9.0
2016-Jul-23 03:34N 37°21' E 024°53'35 8.7
2016-Jul-22 23:33N 37°33' E 024°12'9 8.4
2016-Jul-22 22:32N 37°39' E 024°05'41 2.3
2016-Jul-22 04:33N 37°21' E 024°51'11 9.7
2016-Jul-22 03:27N 37°20' E 025°04'8 9.2
2016-Jul-22 02:34N 37°19' E 025°15'10 9.6
2016-Jul-22 01:34N 37°19' E 025°27'13 9.5
2016-Jul-22 00:13N 37°19' E 025°43'6 9.1
2016-Jul-21 23:34N 37°18' E 025°50'  
2016-Jul-16 01:28N 36°30' E 027°50'  
Track history (hours):
 
Tides and Currents Weather Stations Pressure Air Temp Water Temp Dewpoint Dewpoint Depression Visibility Wind Speed Wind Dir Waves Ship Positions

Mariq

Last reported at 2016-Jul-23 08:34 UTC. Time now 2016-Jul-27 13:32 UTC.
Position N 37°16' E 025°49'.

Length 57 m.

Type: Tanker. MMSI: 239758424.

Date/timePositionNaut miles runAvg speedWind from/ knotsBaromVisibWave heightAir tempDewpointWater temp
2016-Jul-23 08:34N 37°16' E 025°49'13 8.9
2016-Jul-23 07:06N 37°17' E 025°33'5 8.9
2016-Jul-23 06:34N 37°18' E 025°27'18 8.9
2016-Jul-23 04:33N 37°20' E 025°05'9 9.0
2016-Jul-23 03:34N 37°21' E 024°53'35 8.7
2016-Jul-22 23:33N 37°33' E 024°12'9 8.4
2016-Jul-22 22:32N 37°39' E 024°05'41 2.3
2016-Jul-22 04:33N 37°21' E 024°51'11 9.7
2016-Jul-22 03:27N 37°20' E 025°04'8 9.2
2016-Jul-22 02:34N 37°19' E 025°15'10 9.6
2016-Jul-22 01:34N 37°19' E 025°27'13 9.5
2016-Jul-22 00:13N 37°19' E 025°43'6 9.1
2016-Jul-21 23:34N 37°18' E 025°50'  
2016-Jul-16 01:28N 36°30' E 027°50'  

Dump ship's entire track history